Blue Earth, Minnesota
Current Conditions -  °F | °C
As of 8:15 AM on Wednesday 26 Nov 2014 (Local Time) from KFRM Reporting Station
Overcast Overcast  
Wind Chill: 15°   Ceiling: 1500
Heat Index: 25°   Visibility: 2mi
Dew Point: 21°   Wind: 9mph
Humidity: 86%   Direction: 20°NNE
Pressure: 30.01"   Gusts: NA
Location:  43.64°N, 94.1°W
Report Text: KFRM 261415Z AUTO 02008KT 2SM BKN015 OVC027 M04/M06 A3001 RMK AO1
Loading
Personal Weather Stations






























Interactive Weather Map New forecast layout! Learn more

10-Day Weather Forecast

Advertisements
Track Severe Weather on mobile